Terminal Aerodrome Forecast
Issued by NWS Sterling, VA

Home | Current Version | Previous Version | Text Only | Print | Product List | Glossary On
Versions: 1 2 3 4 5 6 7 8 9 10 11 12 13 14 15 16 17 18 19 20 21 22 23
000
FTUS41 KLWX 281100
TAFBWI
TAF
KBWI 281133Z 2812/2918 24010KT P6SM FEW090
     FM281400 29014G25KT P6SM SCT050 BKN090
     FM290000 30012KT P6SM BKN050
     FM290300 28009KT P6SM BKN090
     FM290600 28006KT P6SM SCT250=

USA.gov is the U.S. government's official web portal to all federal, state and local government web resources and services.